Algernon, Nebraska
Current Conditions -  °F | °C
As of 12:53 AM on Thursday 27 Nov 2014 (Local Time) from KBBW Reporting Station
Overcast Overcast  
Wind Chill: -6°   Ceiling: 9000
Heat Index: -6°   Visibility: 10mi
Dew Point: -9°   Wind: 0mph
Humidity: 81%   Direction: NA
Pressure: 30.39"   Gusts: NA
Location:  41.1632°N, 99.3112°W
Report Text: KBBW 270653Z AUTO 00000KT 10SM OVC090 M06/M09 A3039 RMK AO2 SLP324 T10611089
Loading
Personal Weather Stations






























Interactive Weather Map New forecast layout! Learn more

10-Day Weather Forecast

Advertisements
Track Severe Weather on mobile